Time;durP1;ratioP1;P1;durP2;ratioP2;P2;SDS_P1;SDS_P2;PMS_P1;PMS_P2;Temp;Humidity;BMP_temperature;BMP_pressure;BME280_temperature;BME280_humidity;BME280_pressure;Samples;Min_cycle;Max_cycle;Signal;HPM_P1;HPM_P2
2021/11/17 02:26:29;;;;;;;8.03;4.40;;;27.10;86.80;;;;;;1879703;75;21092;-73
2021/11/17 02:29:02;;;;;;;9.75;5.20;;;27.20;87.60;;;;;;1875306;75;21197;-73
2021/11/17 02:31:36;;;;;;;10.18;5.28;;;27.20;86.60;;;;;;1831081;77;21099;-72
2021/11/17 02:34:09;;;;;;;8.58;5.30;;;27.20;86.90;;;;;;1796336;78;21637;-72
2021/11/17 02:36:41;;;;;;;11.40;5.40;;;27.20;86.60;;;;;;1834789;77;21146;-72
2021/11/17 02:39:14;;;;;;;10.32;5.58;;;27.30;86.60;;;;;;1828349;77;21151;-72
2021/11/17 02:41:51;;;;;;;8.15;5.05;;;27.30;86.40;;;;;;1885611;75;21888;-74
2021/11/17 02:44:23;;;;;;;8.63;4.73;;;27.40;86.10;;;;;;1868357;76;21128;-72
2021/11/17 02:46:56;;;;;;;9.45;4.25;;;27.50;85.80;;;;;;1869384;77;21187;-72
2021/11/17 02:49:30;;;;;;;13.18;4.97;;;27.60;85.20;;;;;;1871273;75;21179;-72
2021/11/17 02:52:01;;;;;;;7.78;4.62;;;27.70;85.20;;;;;;1868734;75;21191;-72
2021/11/17 02:54:33;;;;;;;7.47;3.92;;;27.80;84.80;;;;;;1874483;76;21072;-71
2021/11/17 02:57:04;;;;;;;9.85;4.25;;;27.90;83.90;;;;;;1863226;76;21237;-72
2021/11/17 02:59:36;;;;;;;5.83;3.72;;;28.00;83.70;;;;;;1861293;76;21664;-72
2021/11/17 03:02:10;;;;;;;9.88;4.62;;;28.00;82.30;;;;;;1874508;76;21664;-72
2021/11/17 03:04:43;;;;;;;7.00;3.42;;;28.10;82.90;;;;;;1860977;75;21121;-71
2021/11/17 03:07:16;;;;;;;5.70;3.30;;;28.10;82.30;;;;;;1842067;77;21120;-72
2021/11/17 03:09:49;;;;;;;6.75;3.72;;;28.20;81.70;;;;;;1837913;76;21217;-72
2021/11/17 03:12:21;;;;;;;7.92;3.77;;;28.20;81.80;;;;;;1850054;76;21160;-72
2021/11/17 03:14:54;;;;;;;6.67;3.50;;;28.20;82.30;;;;;;1855372;76;21113;-72
2021/11/17 03:17:25;;;;;;;8.83;4.12;;;28.30;81.40;;;;;;1856595;76;21171;-71
2021/11/17 03:19:57;;;;;;;7.70;4.03;;;28.40;81.80;;;;;;1849807;76;21125;-71
2021/11/17 03:22:30;;;;;;;8.15;3.72;;;28.40;81.20;;;;;;1846151;76;21097;-73
2021/11/17 03:25:02;;;;;;;6.10;3.67;;;28.50;80.50;;;;;;1847977;75;21246;-72
2021/11/17 03:27:36;;;;;;;5.80;3.17;;;28.60;80.60;;;;;;1855066;76;21591;-70
2021/11/17 03:30:09;;;;;;;8.65;3.58;;;28.70;80.20;;;;;;1854964;76;21830;-71
2021/11/17 03:32:43;;;;;;;9.90;3.42;;;28.80;80.40;;;;;;1858047;76;21135;-72
2021/11/17 03:35:14;;;;;;;9.48;3.70;;;29.00;79.80;;;;;;1851924;76;21093;-73
2021/11/17 03:37:46;;;;;;;9.10;3.65;;;29.10;78.70;;;;;;1854310;76;21643;-73
2021/11/17 03:40:19;;;;;;;8.85;4.03;;;29.20;78.90;;;;;;1852762;76;21499;-73
2021/11/17 03:42:52;;;;;;;7.50;3.35;;;29.30;79.00;;;;;;1841078;76;21080;-72
2021/11/17 03:45:25;;;;;;;6.33;3.10;;;29.30;78.30;;;;;;1844438;77;21193;-72
2021/11/17 03:47:58;;;;;;;6.87;3.17;;;29.50;77.70;;;;;;1849357;76;21561;-72
2021/11/17 03:50:31;;;;;;;6.70;3.20;;;29.60;77.80;;;;;;1852755;76;21729;-72
2021/11/17 03:53:04;;;;;;;7.75;3.25;;;29.70;77.20;;;;;;1840016;77;21265;-74
2021/11/17 03:55:37;;;;;;;6.70;3.00;;;29.80;77.00;;;;;;1845903;76;21218;-72
2021/11/17 03:58:12;;;;;;;4.62;2.60;;;29.90;76.60;;;;;;1840330;76;21197;-72
2021/11/17 04:00:44;;;;;;;8.48;3.37;;;30.00;76.70;;;;;;1854771;76;21109;-72
2021/11/17 04:03:15;;;;;;;6.10;3.10;;;30.10;75.80;;;;;;1861064;76;21073;-72
2021/11/17 04:05:47;;;;;;;7.87;3.22;;;30.10;75.80;;;;;;1813419;77;21127;-73
2021/11/17 04:08:20;;;;;;;8.98;3.50;;;30.20;76.40;;;;;;1830739;77;22056;-73
2021/11/17 04:10:50;;;;;;;5.90;3.42;;;30.20;76.70;;;;;;1848664;75;21197;-74
2021/11/17 04:13:23;;;;;;;7.87;2.72;;;30.20;75.70;;;;;;1862226;76;21120;-72
2021/11/17 04:15:57;;;;;;;6.83;3.05;;;30.30;75.90;;;;;;1868793;76;21213;-74
2021/11/17 04:18:30;;;;;;;9.50;3.05;;;30.40;75.00;;;;;;1867804;76;21184;-73
2021/11/17 04:21:03;;;;;;;8.10;3.42;;;30.50;75.30;;;;;;1862242;76;21643;-72
2021/11/17 04:23:35;;;;;;;11.43;3.15;;;30.60;74.70;;;;;;1858133;76;22151;-72
2021/11/17 04:26:08;;;;;;;5.55;3.30;;;30.70;74.30;;;;;;1862193;75;21133;-72
2021/11/17 04:28:41;;;;;;;7.28;2.83;;;30.80;74.70;;;;;;1859876;76;21162;-74
2021/11/17 04:31:14;;;;;;;5.87;2.60;;;30.80;73.40;;;;;;1856508;76;21139;-74
2021/11/17 04:33:48;;;;;;;7.60;3.00;;;30.90;73.60;;;;;;1858507;76;21237;-73
2021/11/17 04:36:21;;;;;;;6.20;3.15;;;30.80;73.30;;;;;;1878312;75;21100;-73
2021/11/17 04:38:54;;;;;;;6.42;3.27;;;30.90;74.00;;;;;;1874335;75;21115;-71
2021/11/17 04:41:26;;;;;;;5.62;3.00;;;30.90;73.90;;;;;;1819291;77;21120;-74
2021/11/17 04:43:59;;;;;;;5.20;3.20;;;30.90;73.50;;;;;;1864094;76;21091;-73
2021/11/17 04:46:30;;;;;;;5.33;3.10;;;31.00;74.00;;;;;;1871246;75;21218;-73
2021/11/17 04:49:04;;;;;;;6.30;3.35;;;31.10;73.60;;;;;;1860569;76;21148;-73
2021/11/17 04:51:37;;;;;;;8.33;3.58;;;31.20;73.00;;;;;;1857457;76;21133;-72
2021/11/17 04:54:09;;;;;;;7.58;3.25;;;31.30;72.50;;;;;;1849408;75;21149;-73
2021/11/17 04:56:40;;;;;;;10.30;4.72;;;31.40;72.60;;;;;;1852287;77;21218;-72
2021/11/17 04:59:14;;;;;;;7.70;3.58;;;31.50;72.20;;;;;;1857665;76;21049;-74
2021/11/17 05:01:47;;;;;;;11.30;3.75;;;31.40;71.40;;;;;;1853741;76;21213;-74
2021/11/17 05:04:21;;;;;;;9.90;3.60;;;31.50;71.80;;;;;;1865444;76;21242;-73
2021/11/17 05:06:52;;;;;;;7.37;3.60;;;31.60;72.50;;;;;;1865990;76;22224;-74
2021/11/17 05:09:25;;;;;;;4.83;3.17;;;31.60;71.10;;;;;;1878487;76;21581;-74
2021/11/17 05:11:59;;;;;;;5.75;3.50;;;31.70;71.50;;;;;;1859106;76;21165;-74
2021/11/17 05:14:31;;;;;;;8.38;3.08;;;31.70;72.70;;;;;;1859942;76;21199;-76
2021/11/17 05:17:05;;;;;;;5.17;2.90;;;31.80;70.70;;;;;;1859177;76;21119;-73
2021/11/17 05:19:38;;;;;;;6.83;3.35;;;31.90;71.90;;;;;;1864572;75;21741;-74
2021/11/17 05:22:11;;;;;;;6.55;3.50;;;31.90;70.70;;;;;;1823870;77;21159;-74
2021/11/17 05:24:45;;;;;;;7.45;3.27;;;31.80;70.40;;;;;;1868715;76;21678;-72
2021/11/17 05:27:18;;;;;;;8.53;3.20;;;31.70;71.40;;;;;;1860448;76;21156;-72
2021/11/17 05:29:49;;;;;;;6.37;3.00;;;31.60;70.30;;;;;;1860513;76;21149;-73
2021/11/17 05:32:22;;;;;;;6.60;2.72;;;31.60;71.50;;;;;;1862186;76;21152;-73
2021/11/17 05:34:56;;;;;;;5.65;2.52;;;31.60;70.30;;;;;;1858084;76;21610;-72
2021/11/17 05:37:27;;;;;;;5.42;3.10;;;31.60;71.50;;;;;;1863944;76;21081;-73
2021/11/17 05:40:01;;;;;;;5.75;2.80;;;31.50;71.50;;;;;;1865998;76;21600;-74
2021/11/17 05:42:33;;;;;;;6.30;2.33;;;31.60;71.60;;;;;;1858158;76;21120;-72
2021/11/17 05:45:04;;;;;;;7.95;2.70;;;31.60;70.70;;;;;;1851906;76;21189;-73
2021/11/17 05:47:37;;;;;;;6.03;2.77;;;31.60;71.00;;;;;;1864632;76;21190;-73
2021/11/17 05:50:11;;;;;;;4.87;2.80;;;31.70;69.70;;;;;;1873509;76;22259;-72
2021/11/17 05:52:44;;;;;;;4.42;2.83;;;31.60;70.40;;;;;;1862596;76;21289;-72
2021/11/17 05:55:18;;;;;;;7.03;2.70;;;31.70;70.40;;;;;;1881850;75;21666;-72
2021/11/17 05:57:53;;;;;;;5.17;2.90;;;31.60;70.40;;;;;;1879205;75;21679;-72
2021/11/17 06:00:26;;;;;;;5.25;2.90;;;31.70;70.40;;;;;;1897095;75;21072;-73
2021/11/17 06:02:58;;;;;;;6.83;3.40;;;31.70;70.90;;;;;;1885360;75;21150;-72
2021/11/17 06:05:30;;;;;;;7.72;3.20;;;31.80;69.90;;;;;;1889368;75;21681;-72
2021/11/17 06:08:00;;;;;;;6.15;2.87;;;31.90;70.00;;;;;;1868221;77;21139;-74
2021/11/17 06:10:35;;;;;;;5.25;2.92;;;31.90;70.00;;;;;;1870596;77;21147;-73
2021/11/17 06:13:09;;;;;;;5.22;2.90;;;32.00;71.00;;;;;;1870545;76;21160;-73
2021/11/17 06:15:45;;;;;;;8.03;3.08;;;31.90;70.10;;;;;;1882144;76;21592;-73
2021/11/17 06:18:18;;;;;;;6.20;3.02;;;32.10;69.00;;;;;;1871171;75;21674;-74
2021/11/17 06:20:51;;;;;;;8.30;3.17;;;32.10;69.40;;;;;;1858162;75;21677;-74
2021/11/17 06:23:27;;;;;;;6.97;3.42;;;32.10;69.40;;;;;;1859476;75;21957;-74
2021/11/17 06:25:58;;;;;;;4.85;2.92;;;32.10;69.30;;;;;;1839874;77;21224;-72
2021/11/17 06:28:30;;;;;;;7.45;3.15;;;32.00;70.10;;;;;;1838496;77;21630;-72
2021/11/17 06:31:03;;;;;;;4.72;3.05;;;32.00;69.40;;;;;;1834346;77;21117;-73
2021/11/17 06:33:34;;;;;;;5.78;3.17;;;32.10;69.60;;;;;;1833257;77;21158;-73
2021/11/17 06:36:06;;;;;;;7.90;4.30;;;32.10;68.60;;;;;;1835823;77;21117;-73
2021/11/17 06:38:37;;;;;;;5.17;3.20;;;32.10;69.80;;;;;;1840893;77;21162;-72
2021/11/17 06:41:08;;;;;;;4.97;2.65;;;32.10;68.90;;;;;;1835624;77;21126;-73
2021/11/17 06:43:39;;;;;;;5.87;2.83;;;32.10;68.60;;;;;;1832822;77;21178;-73
2021/11/17 06:46:10;;;;;;;7.05;3.10;;;32.10;68.60;;;;;;1832308;77;21185;-72
2021/11/17 06:48:40;;;;;;;8.23;3.58;;;32.10;68.80;;;;;;1831184;78;21645;-73
2021/11/17 06:51:11;;;;;;;5.67;2.60;;;32.00;68.40;;;;;;1832601;77;21158;-74
2021/11/17 06:53:42;;;;;;;3.95;2.37;;;31.80;68.90;;;;;;1833992;77;21165;-72
2021/11/17 06:56:13;;;;;;;6.00;2.62;;;31.70;69.60;;;;;;1830367;77;21118;-73
2021/11/17 06:58:43;;;;;;;6.17;2.70;;;31.60;69.50;;;;;;1837935;77;21190;-73
2021/11/17 07:01:15;;;;;;;5.65;2.83;;;31.60;69.80;;;;;;1876014;75;21154;-73
2021/11/17 07:03:45;;;;;;;6.05;2.90;;;31.70;70.10;;;;;;1879060;75;21240;-75
2021/11/17 07:06:16;;;;;;;6.58;2.83;;;31.60;70.30;;;;;;1876382;75;21572;-74
2021/11/17 07:08:47;;;;;;;7.70;3.20;;;31.50;69.90;;;;;;1871569;75;21174;-74
2021/11/17 07:11:18;;;;;;;3.90;2.83;;;31.60;70.60;;;;;;1866454;75;21260;-72
2021/11/17 07:13:49;;;;;;;6.35;2.70;;;31.60;69.70;;;;;;1861368;75;21171;-74
2021/11/17 07:16:21;;;;;;;6.60;2.75;;;31.70;69.60;;;;;;1875458;75;21614;-73
2021/11/17 07:18:52;;;;;;;7.30;3.05;;;31.80;68.80;;;;;;1864755;77;21123;-72
2021/11/17 07:21:23;;;;;;;6.15;3.52;;;31.80;68.60;;;;;;1861709;75;21115;-73
2021/11/17 07:23:55;;;;;;;5.85;2.95;;;31.90;68.90;;;;;;1862548;76;21204;-73
2021/11/17 07:26:26;;;;;;;6.92;3.22;;;32.00;68.70;;;;;;1862117;77;21175;-73
2021/11/17 07:28:57;;;;;;;8.45;2.70;;;32.00;69.40;;;;;;1825421;78;21407;-74
2021/11/17 07:31:28;;;;;;;4.15;2.25;;;32.10;69.20;;;;;;1828243;77;21122;-73
2021/11/17 07:33:58;;;;;;;5.67;2.98;;;32.00;69.30;;;;;;1853651;77;21139;-73
2021/11/17 07:36:30;;;;;;;4.67;3.15;;;32.00;69.10;;;;;;1835584;77;21177;-74
2021/11/17 07:39:00;;;;;;;5.37;2.60;;;31.90;69.30;;;;;;1823815;77;21275;-74
2021/11/17 07:41:31;;;;;;;6.35;3.00;;;31.80;69.40;;;;;;1822146;77;21242;-73
2021/11/17 07:44:02;;;;;;;7.55;2.92;;;31.70;69.40;;;;;;1821016;77;21509;-72
2021/11/17 07:46:33;;;;;;;5.37;2.52;;;31.50;70.00;;;;;;1827574;77;21144;-72
2021/11/17 07:49:04;;;;;;;8.18;4.17;;;31.40;70.40;;;;;;1819761;77;21146;-72
2021/11/17 07:51:35;;;;;;;6.97;2.98;;;31.30;71.10;;;;;;1871596;75;21623;-73
2021/11/17 07:54:06;;;;;;;7.40;4.20;;;31.30;71.70;;;;;;1858396;75;21185;-72
2021/11/17 07:56:39;;;;;;;4.35;2.47;;;31.20;70.90;;;;;;1852694;76;21111;-73
2021/11/17 07:59:13;;;;;;;5.20;2.80;;;31.20;70.60;;;;;;1822414;78;21678;-72
2021/11/17 08:01:45;;;;;;;7.17;3.17;;;31.20;70.10;;;;;;1778420;80;21144;-75
2021/11/17 08:04:18;;;;;;;4.15;2.40;;;31.30;71.00;;;;;;1795238;78;21139;-73
2021/11/17 08:06:51;;;;;;;7.40;2.77;;;31.30;70.10;;;;;;1818761;78;21660;-75
2021/11/17 08:09:22;;;;;;;7.42;2.60;;;31.40;70.40;;;;;;1801637;78;21211;-74
2021/11/17 08:11:53;;;;;;;6.80;3.10;;;31.40;70.40;;;;;;1815607;77;21154;-75
2021/11/17 08:14:24;;;;;;;5.62;3.20;;;31.40;70.40;;;;;;1809567;78;21191;-71
2021/11/17 08:16:55;;;;;;;6.72;2.62;;;31.40;72.00;;;;;;1809918;79;21736;-72
2021/11/17 08:19:26;;;;;;;4.05;2.72;;;31.40;71.10;;;;;;1807177;79;21181;-73
2021/11/17 08:21:57;;;;;;;7.47;2.92;;;31.40;70.70;;;;;;1808055;78;21252;-72
2021/11/17 08:24:28;;;;;;;5.30;2.60;;;31.40;70.50;;;;;;1805459;78;21166;-71
2021/11/17 08:26:58;;;;;;;7.03;2.85;;;31.50;70.00;;;;;;1810987;78;21230;-71
2021/11/17 08:29:29;;;;;;;5.75;2.60;;;31.50;70.50;;;;;;1816284;77;21186;-72
2021/11/17 08:32:00;;;;;;;5.40;2.83;;;31.40;70.30;;;;;;1874009;76;21615;-72
2021/11/17 08:34:32;;;;;;;6.37;2.92;;;31.40;70.70;;;;;;1856431;76;21185;-73
2021/11/17 08:37:03;;;;;;;5.25;3.10;;;31.40;70.90;;;;;;1855926;76;21179;-72
2021/11/17 08:39:34;;;;;;;4.50;2.45;;;31.40;70.40;;;;;;1830087;77;21533;-72
2021/11/17 08:42:05;;;;;;;5.67;2.80;;;31.40;70.10;;;;;;1817135;77;22083;-72
2021/11/17 08:44:38;;;;;;;5.83;2.70;;;31.40;70.00;;;;;;1777077;79;21218;-72
2021/11/17 08:47:11;;;;;;;4.22;2.77;;;31.40;70.00;;;;;;1807445;78;21186;-73
2021/11/17 08:49:42;;;;;;;4.70;2.72;;;31.50;70.10;;;;;;1821238;78;21162;-74
2021/11/17 08:52:14;;;;;;;4.22;2.40;;;31.40;70.10;;;;;;1827591;78;21136;-72
2021/11/17 08:54:44;;;;;;;6.28;2.75;;;31.40;70.30;;;;;;1774404;79;21726;-73
2021/11/17 08:57:18;;;;;;;5.40;3.20;;;31.40;70.60;;;;;;1806598;78;21124;-72
2021/11/17 08:59:50;;;;;;;7.55;3.15;;;31.40;70.80;;;;;;1793814;79;21094;-73
2021/11/17 09:02:21;;;;;;;6.03;2.85;;;31.40;70.70;;;;;;1800575;79;21593;-72
2021/11/17 09:04:52;;;;;;;5.47;2.80;;;31.30;70.40;;;;;;1832506;77;21110;-72
2021/11/17 09:07:23;;;;;;;7.62;3.08;;;31.30;71.00;;;;;;1839125;77;21252;-73
2021/11/17 09:09:54;;;;;;;5.05;2.58;;;31.30;71.10;;;;;;1807080;78;21279;-73
2021/11/17 09:12:25;;;;;;;5.92;2.80;;;31.30;71.70;;;;;;1808319;78;21134;-72
2021/11/17 09:14:55;;;;;;;8.38;3.10;;;31.20;70.10;;;;;;1822396;78;21165;-74
2021/11/17 09:17:27;;;;;;;9.23;3.72;;;31.30;70.90;;;;;;1849545;75;21147;-73
2021/11/17 09:19:58;;;;;;;6.62;3.87;;;31.20;71.20;;;;;;1871190;75;21057;-72
2021/11/17 09:22:29;;;;;;;9.00;4.30;;;31.30;71.50;;;;;;1869362;76;21237;-73
2021/11/17 09:25:01;;;;;;;7.90;4.47;;;31.30;71.60;;;;;;1886980;74;21777;-72
2021/11/17 09:27:31;;;;;;;7.92;4.00;;;31.20;71.50;;;;;;1869449;77;21140;-72
2021/11/17 09:30:04;;;;;;;8.20;3.85;;;31.30;71.70;;;;;;1870235;76;21171;-71
2021/11/17 09:32:55;;;;;;;7.17;4.08;;;31.30;71.40;;;;;;1871115;75;21851;-72
2021/11/17 09:35:30;;;;;;;12.25;4.78;;;31.20;71.20;;;;;;1874336;76;21208;-72
2021/11/17 09:38:00;;;;;;;8.90;5.05;;;31.20;71.60;;;;;;1928263;74;21186;-72
2021/11/17 09:40:34;;;;;;;10.53;6.03;;;31.20;72.00;;;;;;1886021;76;21248;-73
2021/11/17 09:43:07;;;;;;;11.83;5.03;;;31.10;71.90;;;;;;1957252;73;21428;-72
2021/11/17 09:45:39;;;;;;;8.40;3.83;;;31.10;72.00;;;;;;1897303;74;21084;-73
2021/11/17 09:48:13;;;;;;;9.08;3.98;;;31.00;71.60;;;;;;1918799;73;21171;-73
2021/11/17 09:50:46;;;;;;;5.17;3.80;;;31.00;71.70;;;;;;1870116;76;21129;-72
2021/11/17 09:53:19;;;;;;;9.83;4.10;;;31.00;71.70;;;;;;1924763;74;21169;-72
2021/11/17 09:55:53;;;;;;;5.87;3.52;;;31.00;71.70;;;;;;1901577;74;21564;-72
2021/11/17 09:58:26;;;;;;;19.37;10.35;;;31.00;71.90;;;;;;1924663;74;21097;-72
2021/11/17 10:00:59;;;;;;;9.60;7.00;;;31.00;71.60;;;;;;1921592;73;21158;-71
2021/11/17 10:03:33;;;;;;;12.20;8.00;;;31.00;71.80;;;;;;1907982;74;21177;-70
2021/11/17 10:13:55;;;;;;;6.08;3.30;;;30.90;72.70;;;;;;1928992;73;21645;-71
2021/11/17 10:16:25;;;;;;;10.08;3.77;;;30.80;73.00;;;;;;1882758;74;21202;-73
2021/11/17 10:19:01;;;;;;;7.47;4.15;;;30.90;73.20;;;;;;1906438;74;21084;-72
2021/11/17 10:21:36;;;;;;;8.18;3.70;;;30.90;73.40;;;;;;1902533;74;21147;-73
2021/11/17 10:24:10;;;;;;;9.28;3.52;;;30.80;73.60;;;;;;1870275;76;21143;-74
2021/11/17 10:26:43;;;;;;;6.28;3.37;;;30.80;73.80;;;;;;1904144;74;21185;-72
2021/11/17 10:29:17;;;;;;;7.80;3.08;;;30.70;74.00;;;;;;1904093;74;21163;-71
2021/11/17 10:31:50;;;;;;;8.58;3.47;;;30.70;73.90;;;;;;1906689;74;21234;-73
2021/11/17 10:34:24;;;;;;;7.95;4.15;;;30.70;73.90;;;;;;1900100;74;21219;-72
2021/11/17 10:36:58;;;;;;;10.08;5.00;;;30.70;74.10;;;;;;1906398;75;21237;-72
2021/11/17 10:39:32;;;;;;;9.38;4.90;;;30.60;74.30;;;;;;1878279;76;21133;-72
2021/11/17 10:42:05;;;;;;;10.60;4.37;;;30.60;74.50;;;;;;1874546;76;21139;-73
2021/11/17 10:44:44;;;;;;;8.30;3.42;;;30.60;74.80;;;;;;1907150;75;21520;-72
2021/11/17 10:47:17;;;;;;;8.43;3.30;;;30.50;75.00;;;;;;1899999;75;21168;-72
2021/11/17 10:49:53;;;;;;;6.33;3.35;;;30.50;75.20;;;;;;1910075;75;21211;-71
2021/11/17 10:52:27;;;;;;;5.62;3.25;;;30.40;75.30;;;;;;1900154;74;21615;-72
2021/11/17 10:55:04;;;;;;;7.78;3.33;;;30.40;75.50;;;;;;1901167;73;21179;-72
2021/11/17 10:57:38;;;;;;;7.58;4.55;;;30.40;75.90;;;;;;1858324;76;21205;-72
2021/11/17 11:00:10;;;;;;;10.10;5.17;;;30.40;76.00;;;;;;1892157;74;21868;-73
2021/11/17 11:02:43;;;;;;;8.88;4.25;;;30.40;77.10;;;;;;1909794;75;21131;-73
2021/11/17 11:05:17;;;;;;;9.00;4.35;;;30.30;76.50;;;;;;1908325;75;21597;-73
2021/11/17 11:07:50;;;;;;;9.53;4.67;;;30.30;76.50;;;;;;1913576;75;21090;-73
2021/11/17 11:10:23;;;;;;;7.47;5.22;;;30.30;76.60;;;;;;1914025;75;21121;-74
2021/11/17 11:12:56;;;;;;;13.90;7.53;;;30.30;76.80;;;;;;1893385;75;21695;-73
2021/11/17 11:15:29;;;;;;;10.98;4.85;;;30.20;76.90;;;;;;1897591;74;21192;-72
2021/11/17 11:18:03;;;;;;;7.30;4.70;;;30.20;77.10;;;;;;1893228;75;21156;-72
2021/11/17 11:20:36;;;;;;;8.40;5.17;;;30.10;78.20;;;;;;1901400;75;21068;-74
2021/11/17 11:23:11;;;;;;;10.13;5.33;;;30.10;77.20;;;;;;1910078;74;21186;-74
2021/11/17 11:25:40;;;;;;;7.75;5.58;;;30.10;77.30;;;;;;1901516;73;21099;-74
2021/11/17 11:28:13;;;;;;;10.82;6.08;;;30.10;77.50;;;;;;1908344;74;21567;-75
2021/11/17 11:30:44;;;;;;;10.35;5.80;;;30.00;77.50;;;;;;1858769;76;21155;-74
2021/11/17 11:33:18;;;;;;;16.73;6.83;;;30.10;77.70;;;;;;1893282;75;21697;-74
2021/11/17 11:35:51;;;;;;;11.30;6.53;;;30.10;77.70;;;;;;1890946;74;21190;-72
2021/11/17 11:38:24;;;;;;;13.43;7.03;;;30.10;77.90;;;;;;1883227;75;21128;-73
2021/11/17 11:40:59;;;;;;;13.93;8.18;;;30.00;77.80;;;;;;1885979;74;21132;-73
2021/11/17 11:43:30;;;;;;;13.43;7.65;;;30.00;78.00;;;;;;1890070;75;21085;-76
2021/11/17 11:46:05;;;;;;;12.95;7.65;;;30.00;77.90;;;;;;1894277;74;21128;-75
2021/11/17 11:48:40;;;;;;;14.13;7.60;;;30.00;78.00;;;;;;1906873;74;21594;-76
2021/11/17 11:51:14;;;;;;;12.80;7.67;;;30.00;78.20;;;;;;1901155;74;21092;-76
2021/11/17 11:53:50;;;;;;;13.28;7.15;;;30.00;78.50;;;;;;1896104;74;21187;-75
2021/11/17 11:56:23;;;;;;;11.15;6.83;;;30.00;78.60;;;;;;1879773;75;21795;-75
2021/11/17 11:58:56;;;;;;;12.40;7.95;;;29.90;78.60;;;;;;1856431;76;21168;-76
2021/11/17 12:01:28;;;;;;;12.60;7.95;;;29.90;78.90;;;;;;1877046;74;21172;-76
2021/11/17 12:04:01;;;;;;;13.78;7.53;;;29.90;79.00;;;;;;1853037;76;21682;-74
2021/11/17 12:06:34;;;;;;;18.37;11.20;;;29.90;79.10;;;;;;1913490;73;21185;-74
2021/11/17 12:09:08;;;;;;;20.60;13.62;;;29.90;79.50;;;;;;1865419;74;21158;-75
2021/11/17 12:11:41;;;;;;;19.90;12.73;;;29.90;79.50;;;;;;1883091;74;21101;-75
2021/11/17 12:14:14;;;;;;;20.40;11.88;;;29.80;79.60;;;;;;1882264;76;21081;-76
2021/11/17 12:16:45;;;;;;;19.32;11.57;;;29.80;79.80;;;;;;1835532;76;21695;-74
2021/11/17 12:19:18;;;;;;;26.15;15.78;;;29.80;80.00;;;;;;1889607;75;21146;-75
2021/11/17 12:21:51;;;;;;;18.30;11.00;;;29.80;80.20;;;;;;1849417;76;21265;-75
2021/11/17 12:24:25;;;;;;;18.55;10.53;;;29.80;80.40;;;;;;1841938;76;21271;-75
2021/11/17 12:26:58;;;;;;;20.30;9.83;;;29.80;80.70;;;;;;1845535;77;21177;-74
2021/11/17 12:29:32;;;;;;;15.70;9.50;;;29.70;80.90;;;;;;1861874;76;21637;-75
2021/11/17 12:32:05;;;;;;;18.37;10.38;;;29.70;81.10;;;;;;1876393;75;21182;-77
2021/11/17 12:34:37;;;;;;;20.68;10.35;;;29.70;81.30;;;;;;1890265;74;21133;-76
2021/11/17 12:37:10;;;;;;;19.95;10.30;;;29.70;81.10;;;;;;1834105;76;21198;-76
2021/11/17 12:39:51;;;;;;;18.02;10.18;;;29.70;81.10;;;;;;1910548;75;21141;-78
2021/11/17 12:42:27;;;;;;;16.25;9.28;;;29.60;81.80;;;;;;1908897;73;21623;-77
2021/11/17 12:45:04;;;;;;;13.20;9.70;;;29.60;81.00;;;;;;1911752;73;21168;-77
2021/11/17 12:47:34;;;;;;;22.13;11.33;;;29.60;81.00;;;;;;1912746;73;21189;-78
2021/11/17 12:50:12;;;;;;;22.32;10.28;;;29.60;81.60;;;;;;1888154;73;21545;-77
2021/11/17 12:52:45;;;;;;;20.80;10.28;;;29.60;81.50;;;;;;1915606;73;21261;-77
2021/11/17 12:55:17;;;;;;;16.52;10.60;;;29.60;81.60;;;;;;1906621;73;21602;-77
2021/11/17 12:57:51;;;;;;;19.10;10.63;;;29.60;81.70;;;;;;1912527;75;21085;-77
2021/11/17 13:00:23;;;;;;;17.12;10.08;;;29.60;81.70;;;;;;1909461;75;21160;-76
2021/11/17 13:02:57;;;;;;;19.20;10.50;;;29.60;82.10;;;;;;1829284;78;21194;-78
2021/11/17 13:05:33;;;;;;;18.77;11.08;;;29.50;82.20;;;;;;1909271;75;21129;-76
2021/11/17 13:08:03;;;;;;;24.55;10.70;;;29.50;82.30;;;;;;1916059;73;21113;-78
2021/11/17 13:10:37;;;;;;;18.25;11.25;;;29.50;82.60;;;;;;1839782;77;21128;-78
2021/11/17 13:13:11;;;;;;;20.40;11.90;;;29.50;82.60;;;;;;1871335;76;21848;-77
2021/11/17 13:15:44;;;;;;;18.60;10.58;;;29.50;82.90;;;;;;1914899;73;21115;-76
2021/11/17 13:18:17;;;;;;;19.82;11.12;;;29.50;83.10;;;;;;1912679;73;21204;-76
2021/11/17 13:20:51;;;;;;;23.83;11.05;;;29.40;82.90;;;;;;1839411;77;21549;-79
2021/11/17 13:23:24;;;;;;;17.82;11.25;;;29.40;83.00;;;;;;1913456;73;21085;-77
2021/11/17 13:26:00;;;;;;;21.82;11.73;;;29.40;82.90;;;;;;1841239;77;21203;-77
2021/11/17 13:28:32;;;;;;;20.43;11.93;;;29.40;82.90;;;;;;1898666;75;21156;-80
2021/11/17 13:31:05;;;;;;;30.02;14.10;;;29.40;82.70;;;;;;1898200;73;21616;-81
2021/11/17 13:33:37;;;;;;;22.73;14.03;;;29.30;82.70;;;;;;1893088;75;21769;-79
2021/11/17 13:36:09;;;;;;;28.12;15.85;;;29.40;83.50;;;;;;1897697;75;21159;-77
2021/11/17 13:38:43;;;;;;;24.27;16.32;;;29.30;82.90;;;;;;1908328;73;21155;-78
2021/11/17 13:41:15;;;;;;;30.35;18.37;;;29.40;82.90;;;;;;1905535;74;21159;-79
2021/11/17 13:43:46;;;;;;;28.55;19.32;;;29.30;82.80;;;;;;1919917;74;21767;-79
2021/11/17 13:46:20;;;;;;;32.85;19.98;;;29.30;82.60;;;;;;1916241;73;21613;-77
2021/11/17 13:48:50;;;;;;;29.87;19.55;;;29.30;82.80;;;;;;1911044;74;21101;-76
2021/11/17 13:51:24;;;;;;;29.07;19.12;;;29.30;83.00;;;;;;1913267;74;21647;-80
2021/11/17 13:53:57;;;;;;;29.18;18.55;;;29.30;82.80;;;;;;1917271;74;21146;-78
2021/11/17 13:56:30;;;;;;;30.15;18.12;;;29.30;83.00;;;;;;1921790;73;21158;-76
2021/11/17 13:59:04;;;;;;;26.25;17.15;;;29.30;83.20;;;;;;1917068;74;21076;-78
2021/11/17 14:01:39;;;;;;;25.08;16.42;;;29.30;83.60;;;;;;1916410;73;21152;-78
2021/11/17 14:04:08;;;;;;;24.20;15.35;;;29.30;83.70;;;;;;1912414;74;21622;-78
2021/11/17 14:06:39;;;;;;;24.10;14.07;;;29.20;83.70;;;;;;1910431;74;21081;-78
2021/11/17 14:09:10;;;;;;;19.85;13.45;;;29.20;83.50;;;;;;1870193;74;21169;-78
2021/11/17 14:11:41;;;;;;;19.85;12.95;;;29.20;83.60;;;;;;1892504;75;21078;-77
2021/11/17 14:14:11;;;;;;;20.85;13.25;;;29.20;83.50;;;;;;1922930;73;21602;-77
2021/11/17 14:16:57;;;;;;;20.55;12.78;;;29.20;83.30;;;;;;1919252;73;21662;-77
2021/11/17 14:19:15;;;;;;;18.77;11.63;;;29.20;83.40;;;;;;1910272;74;21666;-77
2021/11/17 14:21:48;;;;;;;19.00;11.68;;;29.10;83.50;;;;;;1903795;73;21057;-77
2021/11/17 14:24:19;;;;;;;18.75;11.80;;;29.10;83.60;;;;;;1912247;74;21285;-77
2021/11/17 14:26:52;;;;;;;20.57;11.30;;;29.00;83.50;;;;;;1873352;74;21094;-76
2021/11/17 14:29:27;;;;;;;16.52;10.15;;;29.00;83.30;;;;;;1906864;73;21621;-77
2021/11/17 14:32:22;;;;;;;14.58;9.00;;;29.00;83.60;;;;;;1901165;73;21116;-77
2021/11/17 14:34:48;;;;;;;14.18;9.15;;;28.90;83.50;;;;;;1875554;74;21087;-77
2021/11/17 14:37:24;;;;;;;14.85;9.13;;;28.90;83.30;;;;;;1907742;74;21091;-77
2021/11/17 14:40:00;;;;;;;16.00;9.25;;;28.90;83.30;;;;;;1875481;75;21174;-78
2021/11/17 14:42:28;;;;;;;13.80;8.58;;;28.80;83.50;;;;;;1909578;73;21166;-78
2021/11/17 14:45:10;;;;;;;14.13;8.65;;;28.80;83.50;;;;;;1917459;73;21136;-78
2021/11/17 14:47:41;;;;;;;15.50;8.08;;;28.80;83.60;;;;;;1927434;73;21132;-78
2021/11/17 14:50:24;;;;;;;13.15;8.23;;;28.80;83.50;;;;;;1895395;74;21135;-78
2021/11/17 14:52:55;;;;;;;15.38;9.20;;;28.70;83.40;;;;;;1901743;74;21155;-77
2021/11/17 14:55:32;;;;;;;14.73;8.15;;;28.70;83.60;;;;;;1931010;73;21389;-79
2021/11/17 14:58:06;;;;;;;14.73;8.83;;;28.60;83.80;;;;;;1922863;73;22007;-78
2021/11/17 15:00:45;;;;;;;15.70;8.60;;;28.60;83.80;;;;;;1935043;73;21675;-77
2021/11/17 15:03:18;;;;;;;15.70;9.08;;;28.60;83.90;;;;;;1922285;74;21142;-79
2021/11/17 15:05:51;;;;;;;14.87;9.50;;;28.50;83.80;;;;;;1904582;74;21139;-78
2021/11/17 15:08:22;;;;;;;14.20;7.95;;;28.50;84.10;;;;;;1908311;73;22093;-78
2021/11/17 15:10:55;;;;;;;15.63;9.00;;;28.50;84.10;;;;;;1926569;73;21149;-77
2021/11/17 15:13:31;;;;;;;13.65;8.13;;;28.50;84.30;;;;;;1900796;73;21131;-77
2021/11/17 15:16:11;;;;;;;14.60;8.75;;;28.40;84.30;;;;;;1921115;74;21154;-77
2021/11/17 15:18:43;;;;;;;17.30;9.33;;;28.40;84.60;;;;;;1916178;73;21124;-80
2021/11/17 15:21:42;;;;;;;12.85;8.78;;;28.40;84.60;;;;;;1916173;73;21594;-78
2021/11/17 15:24:17;;;;;;;15.08;9.25;;;28.40;84.90;;;;;;1915682;73;21654;-78
2021/11/17 15:26:58;;;;;;;18.73;9.85;;;28.30;85.30;;;;;;1908612;73;21161;-78
2021/11/17 15:29:43;;;;;;;13.85;9.35;;;28.20;85.10;;;;;;1918619;74;21241;-77
2021/11/17 15:32:18;;;;;;;14.70;8.78;;;28.20;85.20;;;;;;1915386;74;21119;-80
2021/11/17 15:34:45;;;;;;;14.45;8.55;;;28.20;85.30;;;;;;1917555;73;21124;-78
2021/11/17 15:37:17;;;;;;;18.35;9.40;;;28.20;85.50;;;;;;1888752;74;21154;-78
2021/11/17 15:39:48;;;;;;;15.28;8.78;;;28.10;85.50;;;;;;1923484;73;21600;-78
2021/11/17 15:42:19;;;;;;;19.20;9.43;;;28.10;85.60;;;;;;1912122;73;21166;-78